Time;durP1;ratioP1;P1;durP2;ratioP2;P2;SDS_P1;SDS_P2;PMS_P1;PMS_P2;Temp;Humidity;BMP_temperature;BMP_pressure;BME280_temperature;BME280_humidity;BME280_pressure;Samples;Min_cycle;Max_cycle;Signal;HPM_P1;HPM_P2
2021/09/07 00:01:41;;;;;;;40.20;23.80;;;;;;;13.67;100.00;102066.50;7393229;19;20494;-55
2021/09/07 00:04:11;;;;;;;43.00;26.47;;;;;;;13.66;100.00;102063.84;7398186;19;20710;-55
2021/09/07 00:06:41;;;;;;;43.67;24.73;;;;;;;13.71;100.00;102064.97;7393776;19;20479;-55
2021/09/07 00:09:10;;;;;;;46.90;23.87;;;;;;;13.69;100.00;102059.69;7397160;19;20543;-55
2021/09/07 00:11:42;;;;;;;39.10;24.50;;;;;;;13.70;100.00;102070.97;7393848;19;20421;-59
2021/09/07 00:14:12;;;;;;;43.50;25.23;;;;;;;13.68;100.00;102072.59;7397877;19;20375;-56
2021/09/07 00:16:41;;;;;;;40.53;24.37;;;;;;;13.61;100.00;102067.13;7393688;19;20407;-52
2021/09/07 00:19:11;;;;;;;42.93;26.23;;;;;;;13.59;100.00;102073.91;7397212;19;20387;-56
2021/09/07 00:21:53;;;;;;;47.20;27.43;;;;;;;13.59;100.00;102063.53;7393803;19;20515;-58
2021/09/07 00:24:22;;;;;;;45.07;27.50;;;;;;;13.60;100.00;102057.53;7397713;19;20399;-54
2021/09/07 00:26:54;;;;;;;44.30;27.50;;;;;;;13.69;100.00;102064.00;7393315;19;20411;-59
2021/09/07 00:29:24;;;;;;;45.53;27.83;;;;;;;13.67;100.00;102068.22;7396712;19;20451;-56
2021/09/07 00:31:53;;;;;;;43.40;26.00;;;;;;;13.71;100.00;102059.78;7395192;19;20526;-56
2021/09/07 00:34:23;;;;;;;42.53;25.37;;;;;;;13.85;100.00;102050.97;7403524;19;20388;-54
2021/09/07 00:36:52;;;;;;;49.20;28.60;;;;;;;13.96;100.00;102050.59;7399475;19;20498;-58
2021/09/07 00:39:22;;;;;;;47.23;29.43;;;;;;;13.90;100.00;102044.28;7404329;19;20661;-56
2021/09/07 00:41:54;;;;;;;47.10;27.73;;;;;;;14.04;100.00;102049.25;7400411;19;20427;-54
2021/09/07 00:44:25;;;;;;;49.10;29.17;;;;;;;14.16;100.00;102046.38;7404625;19;20388;-55
2021/09/07 00:46:57;;;;;;;54.53;31.60;;;;;;;14.15;100.00;102040.28;7400439;19;20487;-53
2021/09/07 00:49:27;;;;;;;44.53;27.90;;;;;;;14.06;100.00;102039.88;7403446;19;20391;-57
2021/09/07 00:51:57;;;;;;;43.70;28.50;;;;;;;13.86;100.00;102025.91;7400516;19;20445;-59
2021/09/07 00:54:37;;;;;;;44.10;26.97;;;;;;;13.83;100.00;102030.94;7403391;19;20392;-53
2021/09/07 00:57:12;;;;;;;45.50;27.20;;;;;;;13.77;100.00;102022.06;7398964;19;20483;-57
2021/09/07 00:59:42;;;;;;;50.03;29.10;;;;;;;13.71;100.00;102031.25;7403534;19;20469;-59
2021/09/07 01:02:13;;;;;;;44.67;26.23;;;;;;;13.72;100.00;102033.94;7399275;19;20502;-56
2021/09/07 01:04:42;;;;;;;46.60;27.40;;;;;;;13.88;100.00;102040.75;7403798;19;20380;-53
2021/09/07 01:07:12;;;;;;;47.47;28.27;;;;;;;13.83;100.00;102039.63;7399650;19;20482;-54
2021/09/07 01:09:42;;;;;;;47.03;27.57;;;;;;;13.75;100.00;102047.03;7402446;19;20376;-55
2021/09/07 01:12:14;;;;;;;49.10;29.00;;;;;;;13.76;100.00;102050.53;7398388;19;20407;-52
2021/09/07 01:14:44;;;;;;;43.00;28.37;;;;;;;13.74;100.00;102047.84;7404187;19;20443;-55
2021/09/07 01:17:14;;;;;;;50.87;29.80;;;;;;;13.74;100.00;102041.78;7399489;19;20411;-57
2021/09/07 01:19:46;;;;;;;47.83;29.37;;;;;;;13.76;100.00;102045.34;7403089;19;20388;-59
2021/09/07 01:22:15;;;;;;;45.90;28.30;;;;;;;13.76;100.00;102046.22;7398839;19;20511;-57
2021/09/07 01:24:48;;;;;;;48.30;28.90;;;;;;;13.76;100.00;102035.84;7402973;19;20732;-56
2021/09/07 01:27:18;;;;;;;58.13;30.53;;;;;;;13.88;100.00;102038.16;7376459;19;20395;-54
2021/09/07 01:29:48;;;;;;;51.90;28.07;;;;;;;13.80;100.00;102036.00;7402211;19;20402;-55
2021/09/07 01:32:19;;;;;;;48.43;29.30;;;;;;;13.85;100.00;102038.00;7376783;19;20499;-56
2021/09/07 01:34:49;;;;;;;48.27;28.53;;;;;;;13.73;100.00;102027.91;7402573;19;20680;-58
2021/09/07 01:37:18;;;;;;;48.83;29.20;;;;;;;13.68;100.00;102031.13;7398501;19;20800;-56
2021/09/07 01:39:50;;;;;;;45.20;27.83;;;;;;;13.67;100.00;102039.69;7402874;19;20396;-54
2021/09/07 01:42:22;;;;;;;46.20;28.90;;;;;;;13.72;100.00;102039.09;7398344;19;20439;-53
2021/09/07 01:44:52;;;;;;;47.80;27.97;;;;;;;13.67;100.00;102024.13;7401024;19;20447;-55
2021/09/07 01:47:21;;;;;;;56.97;29.47;;;;;;;13.82;100.00;102043.03;7394100;19;20515;-55
2021/09/07 01:49:50;;;;;;;44.10;28.17;;;;;;;13.75;100.00;102038.38;7401613;19;20406;-57
2021/09/07 01:52:20;;;;;;;46.67;27.43;;;;;;;13.66;100.00;102043.09;7397898;19;20451;-56
2021/09/07 01:54:52;;;;;;;43.73;27.10;;;;;;;13.67;100.00;102047.47;7402323;19;20388;-59
2021/09/07 01:57:22;;;;;;;46.53;27.57;;;;;;;13.67;100.00;102047.47;7397869;19;20495;-58
2021/09/07 01:59:51;;;;;;;52.60;30.53;;;;;;;13.55;100.00;102040.88;7401803;19;20392;-56
2021/09/07 02:02:21;;;;;;;51.00;29.37;;;;;;;13.54;100.00;102048.56;7397492;19;20691;-54
2021/09/07 02:04:50;;;;;;;56.60;30.30;;;;;;;13.58;100.00;102038.41;7401683;19;20455;-55
2021/09/07 02:07:20;;;;;;;57.40;33.80;;;;;;;13.67;100.00;102047.47;7397129;19;20479;-53
2021/09/07 02:09:52;;;;;;;70.53;38.20;;;;;;;13.71;100.00;102052.00;7401124;19;20463;-54
2021/09/07 02:12:22;;;;;;;50.20;31.60;;;;;;;13.63;100.00;102036.03;7397393;19;20877;-57
2021/09/07 02:14:53;;;;;;;53.63;32.80;;;;;;;13.54;100.00;102044.25;7401344;19;20480;-54
2021/09/07 02:17:24;;;;;;;71.00;41.13;;;;;;;13.60;100.00;102036.78;7396056;19;20431;-56
2021/09/07 02:19:54;;;;;;;53.40;32.93;;;;;;;13.64;100.00;102043.00;7401274;19;20400;-52
2021/09/07 02:22:25;;;;;;;49.93;31.60;;;;;;;13.40;100.00;102034.88;7396999;19;20418;-52
2021/09/07 02:24:57;;;;;;;47.37;29.30;;;;;;;13.24;100.00;102044.47;7400292;19;20455;-57
2021/09/07 02:27:27;;;;;;;53.07;32.50;;;;;;;13.17;100.00;102044.97;7375145;19;20387;-55
2021/09/07 02:29:56;;;;;;;56.03;31.00;;;;;;;13.12;100.00;102049.88;7400254;19;20402;-54
2021/09/07 02:32:26;;;;;;;47.40;28.40;;;;;;;13.08;100.00;102051.44;7397782;19;20431;-51
2021/09/07 02:34:55;;;;;;;45.80;28.27;;;;;;;12.96;100.00;102048.19;7400808;19;20459;-54
2021/09/07 02:37:25;;;;;;;46.90;27.50;;;;;;;12.96;100.00;102045.59;7396662;19;20927;-51
2021/09/07 02:39:54;;;;;;;53.73;29.80;;;;;;;12.98;100.00;102044.00;7399974;19;20458;-54
2021/09/07 02:42:26;;;;;;;50.97;30.10;;;;;;;13.02;100.00;102032.97;7396040;19;20418;-57
2021/09/07 02:44:56;;;;;;;51.97;33.17;;;;;;;13.15;100.00;102034.53;7400699;19;20919;-54
2021/09/07 02:47:25;;;;;;;47.43;29.67;;;;;;;13.10;100.00;102031.69;7396134;19;20421;-53
2021/09/07 02:49:55;;;;;;;51.47;30.27;;;;;;;13.17;100.00;102025.13;7400285;19;20451;-54
2021/09/07 02:52:24;;;;;;;52.50;32.70;;;;;;;13.24;100.00;102021.16;7368464;19;20769;-57
2021/09/07 02:54:54;;;;;;;55.37;32.37;;;;;;;13.18;100.00;102028.59;7399817;19;20733;-58
2021/09/07 02:57:24;;;;;;;58.83;37.30;;;;;;;13.14;100.00;102019.78;7392548;19;20407;-54
2021/09/07 02:59:56;;;;;;;58.93;33.70;;;;;;;13.11;100.00;102022.19;7399108;19;20380;-52
2021/09/07 03:02:26;;;;;;;67.40;38.97;;;;;;;13.14;100.00;102021.47;7395598;19;20425;-55
2021/09/07 03:04:56;;;;;;;61.73;36.53;;;;;;;13.23;100.00;102022.84;7400046;19;20406;-54
2021/09/07 03:07:26;;;;;;;68.67;39.03;;;;;;;13.28;100.00;102020.47;7395887;19;20427;-57
2021/09/07 03:09:55;;;;;;;53.73;33.67;;;;;;;13.27;100.00;102021.28;7399617;19;20383;-54
2021/09/07 03:12:25;;;;;;;53.40;33.00;;;;;;;13.15;100.00;102020.66;7394539;19;20425;-53
2021/09/07 03:14:57;;;;;;;54.03;30.40;;;;;;;13.25;100.00;102009.97;7398554;19;20392;-54
2021/09/07 03:17:27;;;;;;;43.40;28.00;;;;;;;13.24;100.00;102021.16;7395448;19;20491;-52
2021/09/07 03:19:56;;;;;;;50.83;30.40;;;;;;;13.12;100.00;102020.50;7399322;19;20459;-52
2021/09/07 03:22:29;;;;;;;55.37;30.70;;;;;;;13.05;100.00;102017.59;7394590;19;20426;-53
2021/09/07 03:24:59;;;;;;;53.10;29.70;;;;;;;13.22;100.00;102020.16;7399349;19;20392;-59
2021/09/07 03:27:28;;;;;;;51.13;28.50;;;;;;;13.19;100.00;102017.44;7394997;19;20470;-53
2021/09/07 03:30:00;;;;;;;47.67;29.57;;;;;;;13.25;100.00;102020.31;7399015;19;20451;-54
2021/09/07 03:32:30;;;;;;;44.40;27.83;;;;;;;13.19;100.00;102023.47;7393594;19;20430;-54
2021/09/07 03:34:59;;;;;;;42.37;27.60;;;;;;;13.33;100.00;102018.13;7399115;19;20383;-52
2021/09/07 03:37:29;;;;;;;45.47;28.47;;;;;;;13.40;100.00;102014.13;7394699;19;20474;-57
2021/09/07 03:39:58;;;;;;;47.53;26.87;;;;;;;13.44;100.00;102010.88;7398819;19;20658;-58
2021/09/07 03:42:28;;;;;;;42.87;27.67;;;;;;;13.32;100.00;102014.63;7391273;19;20422;-55
2021/09/07 03:45:00;;;;;;;45.50;26.50;;;;;;;13.36;100.00;102011.41;7398847;19;20395;-55
2021/09/07 03:47:29;;;;;;;40.90;25.60;;;;;;;13.35;100.00;102007.00;7391565;19;20750;-52
2021/09/07 03:49:59;;;;;;;41.47;25.40;;;;;;;13.39;100.00;102020.13;7398123;19;20459;-51
2021/09/07 03:52:28;;;;;;;47.30;28.10;;;;;;;13.44;100.00;102010.88;7389847;19;20423;-55
2021/09/07 03:54:58;;;;;;;42.73;27.27;;;;;;;13.51;100.00;102007.81;7398622;19;20384;-55
2021/09/07 03:57:28;;;;;;;50.33;27.23;;;;;;;13.32;100.00;102006.88;7391289;19;20415;-52
2021/09/07 04:00:00;;;;;;;48.73;27.53;;;;;;;13.32;100.00;102014.63;7398027;19;20384;-49
2021/09/07 04:02:30;;;;;;;44.03;27.17;;;;;;;13.35;100.00;102014.78;7393464;19;20427;-55
2021/09/07 04:04:59;;;;;;;43.57;26.17;;;;;;;13.39;100.00;102018.44;7399081;19;20477;-58
2021/09/07 04:07:29;;;;;;;41.57;25.47;;;;;;;13.15;100.00;102021.56;7390257;19;20756;-53
2021/09/07 04:09:58;;;;;;;39.07;24.03;;;;;;;13.30;100.00;102034.41;7405518;19;20459;-53
2021/09/07 04:12:28;;;;;;;41.13;26.17;;;;;;;13.37;100.00;102036.50;7396976;19;20456;-49
2021/09/07 04:15:00;;;;;;;44.10;26.57;;;;;;;13.30;100.00;102039.59;7405190;19;20387;-54
2021/09/07 04:17:29;;;;;;;44.03;25.03;;;;;;;13.37;100.00;102036.50;7398436;19;20436;-52
2021/09/07 04:19:59;;;;;;;42.13;25.50;;;;;;;13.29;100.00;102026.56;7404842;19;20412;-52
2021/09/07 04:22:28;;;;;;;51.60;27.20;;;;;;;13.19;100.00;102036.44;7397208;19;20487;-59
2021/09/07 04:24:58;;;;;;;44.63;25.67;;;;;;;13.17;100.00;102030.28;7405140;19;20721;-54
2021/09/07 04:27:27;;;;;;;35.03;23.90;;;;;;;13.02;100.00;102026.94;7396266;19;20491;-56
2021/09/07 04:29:59;;;;;;;38.87;24.70;;;;;;;12.95;100.00;102025.69;7404681;19;20451;-50
2021/09/07 04:32:29;;;;;;;44.90;24.23;;;;;;;12.71;100.00;102022.72;7396442;19;20706;-56
2021/09/07 04:34:58;;;;;;;41.70;25.00;;;;;;;12.59;100.00;102017.75;7404779;19;20451;-54
2021/09/07 04:37:28;;;;;;;38.47;24.07;;;;;;;12.73;100.00;102027.19;7396995;19;20933;-57
2021/09/07 04:39:57;;;;;;;42.07;25.40;;;;;;;12.63;100.00;102032.66;7404407;19;20472;-57
2021/09/07 04:42:27;;;;;;;40.70;25.60;;;;;;;12.69;100.00;102036.47;7398986;19;20458;-55
2021/09/07 04:44:56;;;;;;;41.93;25.97;;;;;;;12.55;100.00;102040.91;7403989;19;20434;-58
2021/09/07 04:47:28;;;;;;;43.20;26.43;;;;;;;12.42;100.00;102051.41;7396651;19;20893;-57
2021/09/07 04:49:58;;;;;;;43.03;26.00;;;;;;;12.27;100.00;102049.72;7404309;19;20473;-54
2021/09/07 04:52:27;;;;;;;38.63;25.60;;;;;;;12.28;100.00;102056.72;7395981;19;20896;-56
2021/09/07 04:54:56;;;;;;;42.23;25.93;;;;;;;12.53;100.00;102057.16;7404096;19;20392;-59
2021/09/07 04:57:26;;;;;;;41.80;25.30;;;;;;;12.70;100.00;102065.84;7396455;19;20866;-54
2021/09/07 04:59:57;;;;;;;41.00;25.57;;;;;;;12.61;100.00;102052.41;7403807;19;20834;-58
2021/09/07 05:02:29;;;;;;;39.77;25.93;;;;;;;12.64;100.00;102057.72;7395645;19;20433;-58
2021/09/07 05:04:59;;;;;;;43.20;28.63;;;;;;;12.49;100.00;102065.56;7403266;19;20388;-56
2021/09/07 05:07:28;;;;;;;42.47;27.53;;;;;;;12.33;100.00;102058.66;7396187;19;20890;-56
2021/09/07 05:09:58;;;;;;;47.90;27.60;;;;;;;12.36;100.00;102069.19;7403448;19;20462;-59
2021/09/07 05:12:27;;;;;;;45.90;27.03;;;;;;;12.39;100.00;102070.25;7395205;19;20446;-60
2021/09/07 05:14:57;;;;;;;41.63;27.40;;;;;;;12.48;100.00;102068.97;7403291;19;20396;-55
2021/09/07 05:17:29;;;;;;;44.10;29.17;;;;;;;12.53;100.00;102068.41;7395549;19;20486;-55
2021/09/07 05:19:59;;;;;;;43.33;27.90;;;;;;;12.46;100.00;102066.28;7400809;19;20383;-57
2021/09/07 05:22:29;;;;;;;44.53;29.03;;;;;;;12.47;100.00;102064.59;7394997;19;20451;-59
2021/09/07 05:25:01;;;;;;;46.13;28.20;;;;;;;12.72;100.00;102071.09;7403477;19;20717;-57
2021/09/07 05:27:31;;;;;;;44.80;26.60;;;;;;;12.97;100.00;102075.88;7395948;19;20447;-56
2021/09/07 05:30:00;;;;;;;41.70;26.70;;;;;;;13.02;100.00;102076.16;7402693;19;20410;-54
2021/09/07 05:32:32;;;;;;;41.83;26.30;;;;;;;13.01;100.00;102067.47;7394775;19;20415;-57
2021/09/07 05:35:02;;;;;;;40.97;24.27;;;;;;;13.05;100.00;102065.94;7402893;19;20383;-58
2021/09/07 05:37:37;;;;;;;40.57;23.57;;;;;;;13.01;100.00;102063.97;7395247;19;20423;-54
2021/09/07 05:40:08;;;;;;;38.60;23.80;;;;;;;13.02;100.00;102052.84;7402314;19;20387;-53
2021/09/07 05:42:41;;;;;;;35.50;21.87;;;;;;;13.07;100.00;102052.25;7393697;19;20431;-49
2021/09/07 05:45:13;;;;;;;39.63;25.33;;;;;;;12.89;100.00;102047.00;7402528;19;20435;-56
2021/09/07 05:47:45;;;;;;;48.03;24.30;;;;;;;12.76;100.00;102047.16;7394917;19;20415;-58
2021/09/07 05:50:16;;;;;;;39.23;23.03;;;;;;;12.75;100.00;102048.84;7401904;19;20387;-57
2021/09/07 05:52:46;;;;;;;38.00;22.77;;;;;;;12.79;100.00;102052.50;7393991;19;20415;-55
2021/09/07 05:55:16;;;;;;;44.23;25.63;;;;;;;12.64;100.00;102053.47;7402177;19;20380;-58
2021/09/07 05:57:46;;;;;;;35.70;24.17;;;;;;;12.50;100.00;102064.75;7394424;19;20945;-57
2021/09/07 06:00:16;;;;;;;38.10;22.73;;;;;;;12.63;100.00;102063.72;7402114;19;20408;-55
2021/09/07 06:02:51;;;;;;;39.93;23.93;;;;;;;12.80;100.00;102067.22;7392962;19;20423;-58
2021/09/07 06:05:21;;;;;;;42.03;26.53;;;;;;;13.08;100.00;102073.88;7401705;19;20392;-56
2021/09/07 06:07:55;;;;;;;41.63;26.13;;;;;;;12.93;100.00;102079.13;7394974;19;20430;-51
2021/09/07 06:10:24;;;;;;;41.80;25.00;;;;;;;12.93;100.00;102080.00;7401250;19;20387;-56
2021/09/07 06:12:54;;;;;;;45.37;25.13;;;;;;;13.00;100.00;102085.50;7393103;19;20435;-56
2021/09/07 06:15:23;;;;;;;44.60;26.20;;;;;;;13.09;100.00;102086.88;7401072;19;20402;-55
2021/09/07 06:17:56;;;;;;;41.40;26.00;;;;;;;13.16;100.00;102089.81;7394274;19;20399;-52
2021/09/07 06:20:25;;;;;;;56.23;31.97;;;;;;;13.27;100.00;102099.03;7400460;19;20404;-52
2021/09/07 06:23:02;;;;;;;39.70;26.70;;;;;;;13.22;100.00;102098.81;7393381;19;20418;-50
2021/09/07 06:25:32;;;;;;;40.90;25.87;;;;;;;13.18;100.00;102096.84;7400475;19;20463;-56
2021/09/07 06:28:01;;;;;;;40.33;24.97;;;;;;;13.20;100.00;102096.94;7394265;19;20482;-54
2021/09/07 06:30:31;;;;;;;41.37;24.93;;;;;;;13.31;100.00;102102.69;7399921;19;20444;-58
2021/09/07 06:33:03;;;;;;;40.77;26.13;;;;;;;13.34;100.00;102102.84;7392818;19;20419;-54
2021/09/07 06:35:32;;;;;;;39.70;24.20;;;;;;;13.36;100.00;102102.13;7400180;19;20460;-57
2021/09/07 06:38:02;;;;;;;40.70;25.50;;;;;;;13.34;100.00;102098.53;7378575;19;20415;-54
2021/09/07 06:40:31;;;;;;;43.13;26.10;;;;;;;13.43;100.00;102107.63;7403853;19;20767;-58
2021/09/07 06:43:01;;;;;;;39.70;24.67;;;;;;;13.43;100.00;102099.84;7392401;19;20432;-56
2021/09/07 06:45:30;;;;;;;38.73;26.70;;;;;;;13.60;100.00;102104.19;7399893;19;20387;-56
2021/09/07 06:48:03;;;;;;;41.30;26.60;;;;;;;13.77;100.00;102098.97;7393703;19;20431;-55
2021/09/07 06:50:32;;;;;;;101.07;58.57;;;;;;;14.01;100.00;102093.25;7400170;19;20388;-54
2021/09/07 06:53:02;;;;;;;34.23;21.70;;;;;;;13.99;100.00;102089.66;7392120;19;20419;-51
2021/09/07 06:55:31;;;;;;;62.13;36.07;;;;;;;14.07;100.00;102093.53;7398544;19;20403;-57
2021/09/07 06:58:01;;;;;;;39.60;26.20;;;;;;;14.20;100.00;102088.94;7393181;19;20430;-56
2021/09/07 07:00:30;;;;;;;48.73;28.30;;;;;;;14.34;100.00;102087.88;7399789;19;20463;-55
2021/09/07 07:03:03;;;;;;;41.13;25.80;;;;;;;14.29;100.00;102102.34;7391657;19;20416;-55
2021/09/07 07:05:32;;;;;;;33.60;22.17;;;;;;;14.34;100.00;102093.06;7399353;19;20845;-50
2021/09/07 07:08:02;;;;;;;33.70;21.07;;;;;;;14.40;100.00;102089.88;7393143;19;20427;-59
2021/09/07 07:10:32;;;;;;;34.77;23.50;;;;;;;14.48;100.00;102092.84;7398763;19;20846;-51
2021/09/07 07:13:01;;;;;;;47.07;30.97;;;;;;;14.60;100.00;102096.00;7391529;19;20897;-54
2021/09/07 07:15:31;;;;;;;32.17;20.07;;;;;;;14.54;100.00;102090.53;7398975;19;20384;-57
2021/09/07 07:18:03;;;;;;;27.30;19.00;;;;;;;14.61;100.00;102087.38;7392878;19;20419;-56
2021/09/07 07:20:32;;;;;;;35.27;22.87;;;;;;;14.82;100.00;102084.94;7399284;19;20874;-54
2021/09/07 07:23:02;;;;;;;25.03;17.13;;;;;;;14.78;100.00;102074.34;7391526;19;20426;-55
2021/09/07 07:25:32;;;;;;;21.33;14.57;;;;;;;14.72;100.00;102075.78;7398789;19;20448;-55
2021/09/07 07:28:01;;;;;;;24.40;13.53;;;;;;;14.76;100.00;102075.97;7391856;19;20432;-54
2021/09/07 07:30:32;;;;;;;25.63;16.80;;;;;;;14.87;100.00;102082.53;7399061;19;20380;-57
2021/09/07 07:33:04;;;;;;;17.13;12.40;;;;;;;14.85;100.00;102073.78;7391229;19;20415;-56
2021/09/07 07:35:33;;;;;;;22.03;12.90;;;;;;;14.99;100.00;102080.47;7398566;19;20702;-59
2021/09/07 07:38:03;;;;;;;24.63;15.70;;;;;;;15.07;100.00;102073.03;7395474;19;20423;-55
2021/09/07 07:40:32;;;;;;;17.10;11.03;;;;;;;15.07;100.00;102078.22;7398721;19;20392;-51
2021/09/07 07:43:02;;;;;;;21.23;12.30;;;;;;;15.13;100.00;102085.44;7396017;19;20475;-56
2021/09/07 07:45:32;;;;;;;16.43;10.50;;;;;;;15.14;100.00;102084.59;7404978;19;20368;-56
2021/09/07 07:48:04;;;;;;;20.10;12.77;;;;;;;15.22;100.00;102079.72;7402941;19;20406;-56
2021/09/07 07:50:36;;;;;;;19.53;12.63;;;;;;;15.25;100.00;102083.38;7406326;19;20394;-57
2021/09/07 07:53:05;;;;;;;21.13;9.90;;;;;;;15.24;100.00;102075.50;7400654;19;20417;-51
2021/09/07 07:55:35;;;;;;;16.80;10.40;;;;;;;15.40;100.00;102082.25;7405462;19;20454;-57
2021/09/07 07:58:17;;;;;;;22.63;12.73;;;;;;;15.48;100.00;102080.84;7402277;19;20415;-56
2021/09/07 08:00:47;;;;;;;17.10;11.00;;;;;;;15.53;100.00;102083.63;7405800;19;20447;-56
2021/09/07 08:03:19;;;;;;;17.37;8.57;;;;;;;15.61;100.00;102078.78;7398562;19;20439;-55
2021/09/07 08:05:49;;;;;;;16.50;9.07;;;;;;;15.73;100.00;102071.47;7404570;19;20396;-58
2021/09/07 08:08:18;;;;;;;18.73;9.30;;;;;;;15.89;100.00;102072.13;7401968;19;20740;-55
2021/09/07 08:10:48;;;;;;;19.50;11.50;;;;;;;16.00;100.00;102070.84;7405765;19;20396;-59
2021/09/07 08:13:18;;;;;;;17.93;9.83;;;;;;;16.16;100.00;102066.28;7399370;19;20415;-57
2021/09/07 08:15:47;;;;;;;12.40;8.10;;;;;;;16.19;100.00;102079.41;7404948;19;20392;-57
2021/09/07 08:18:20;;;;;;;19.73;9.23;;;;;;;16.30;100.00;102077.22;7401904;19;20941;-55
2021/09/07 08:20:50;;;;;;;10.07;7.00;;;;;;;16.30;100.00;102085.91;7405282;19;20409;-50
2021/09/07 08:23:20;;;;;;;14.00;8.97;;;;;;;16.39;100.00;102092.31;7399171;19;20421;-58
2021/09/07 08:25:49;;;;;;;10.53;6.60;;;;;;;16.38;100.00;102094.03;7404599;19;20385;-56
2021/09/07 08:28:19;;;;;;;9.00;6.20;;;;;;;16.22;100.00;102091.66;7401452;19;20419;-54
2021/09/07 08:30:49;;;;;;;16.63;7.13;;;;;;;16.24;100.00;102090.00;7404990;19;20391;-54
2021/09/07 08:33:21;;;;;;;9.13;5.83;;;;;;;16.38;100.00;102082.72;7399002;19;20419;-57
2021/09/07 08:35:51;;;;;;;10.57;7.03;;;;;;;16.47;100.00;102080.50;7404248;19;20384;-57
2021/09/07 08:38:21;;;;;;;9.97;6.40;;;;;;;16.60;100.00;102082.72;7405583;19;20454;-57
2021/09/07 08:40:53;;;;;;;11.80;6.90;;;;;;;16.52;100.00;102084.16;7404406;19;20396;-57
2021/09/07 08:43:23;;;;;;;17.30;9.10;;;;;;;16.60;100.00;102085.34;7401589;19;20418;-51
2021/09/07 08:45:53;;;;;;;14.83;7.53;;;;;;;16.70;100.00;102089.16;7403843;19;20408;-57
2021/09/07 08:48:26;;;;;;;10.63;6.67;;;;;;;16.83;100.00;102082.69;7403613;19;20443;-59
2021/09/07 08:50:56;;;;;;;13.60;6.37;;;;;;;16.93;100.00;102093.47;7404563;19;20509;-56
2021/09/07 08:53:41;;;;;;;12.20;6.87;;;;;;;16.96;100.00;102085.75;7401239;19;20419;-57
2021/09/07 08:56:12;;;;;;;9.30;6.10;;;;;;;17.12;100.00;102084.59;7399972;19;20384;-58
2021/09/07 08:58:41;;;;;;;14.20;6.57;;;;;;;17.23;100.00;102082.41;7403930;19;20480;-54
2021/09/07 09:01:15;;;;;;;7.40;5.07;;;;;;;17.27;100.00;102084.25;7399844;19;20658;-58
2021/09/07 09:03:50;;;;;;;10.07;5.13;;;;;;;17.43;100.00;102085.69;7401609;19;20407;-55
2021/09/07 09:06:26;;;;;;;6.80;4.70;;;;;;;17.53;100.00;102076.44;7399869;19;20721;-59
2021/09/07 09:09:04;;;;;;;10.30;5.40;;;;;;;17.55;100.00;102080.88;7403978;19;20399;-54
2021/09/07 09:11:52;;;;;;;11.90;5.83;;;;;;;17.63;100.00;102070.72;7400195;19;20419;-55
2021/09/07 09:14:34;;;;;;;9.47;6.07;;;;;;;17.69;100.00;102072.63;7402474;19;20392;-57
2021/09/07 09:17:16;;;;;;;10.00;5.53;;;;;;;17.68;100.00;102076.97;7399376;19;20877;-55
2021/09/07 09:19:53;;;;;;;8.70;5.33;;;;;;;17.77;100.00;102080.72;7402662;19;20388;-57
2021/09/07 09:22:24;;;;;;;7.33;4.40;;;;;;;18.02;100.00;102076.31;7398668;19;20427;-55
2021/09/07 09:24:54;;;;;;;9.20;4.60;;;;;;;17.77;100.00;102080.72;7403345;19;20514;-56
2021/09/07 09:27:28;;;;;;;7.90;4.50;;;;;;;17.63;100.00;102072.44;7398888;19;20432;-56
2021/09/07 09:29:58;;;;;;;6.90;3.77;;;;;;;17.77;100.00;102075.50;7403183;19;20675;-56
2021/09/07 09:32:27;;;;;;;9.67;4.30;;;;;;;17.81;100.00;102070.44;7398166;19;20494;-60
2021/09/07 09:35:09;;;;;;;8.97;4.10;;;;;;;17.94;100.00;102057.78;7401729;19;20447;-56
2021/09/07 09:37:54;;;;;;;7.90;4.73;;;;;;;18.07;100.00;102064.31;7397940;19;20411;-57
2021/09/07 09:40:24;;;;;;;7.30;4.47;;;;;;;18.23;100.00;102060.44;7402574;19;20455;-54
2021/09/07 09:42:54;;;;;;;9.30;4.37;;;;;;;18.34;100.00;102055.56;7397897;19;20478;-52
2021/09/07 09:45:30;;;;;;;8.13;4.30;;;;;;;18.39;100.00;102060.91;7402448;19;20732;-52
2021/09/07 09:48:01;;;;;;;13.13;5.53;;;;;;;18.56;100.00;102064.91;7399153;19;20418;-54
2021/09/07 09:50:36;;;;;;;13.50;7.50;;;;;;;18.69;100.00;102055.72;7402032;19;20448;-59
2021/09/07 09:53:06;;;;;;;13.73;9.40;;;;;;;18.81;100.00;102057.78;7397418;19;20422;-52
2021/09/07 09:55:35;;;;;;;10.60;6.83;;;;;;;18.95;100.00;102055.56;7400172;19;20436;-56
2021/09/07 09:58:05;;;;;;;9.00;4.40;;;;;;;18.67;100.00;102052.16;7398729;19;20471;-59
2021/09/07 10:00:34;;;;;;;8.87;5.27;;;;;;;18.70;100.00;102053.97;7401879;19;20392;-53
2021/09/07 10:03:05;;;;;;;6.87;4.13;;;;;;;19.00;100.00;102061.81;7396836;19;20697;-54
2021/09/07 10:05:38;;;;;;;7.30;4.60;;;;;;;19.08;100.00;102055.94;7399987;19;20854;-52
2021/09/07 10:08:10;;;;;;;7.47;4.83;;;;;;;19.08;100.00;102054.19;7398450;19;20423;-56
2021/09/07 10:10:43;;;;;;;11.70;4.33;;;;;;;19.06;100.00;102057.63;7401343;19;20403;-49
2021/09/07 10:13:17;;;;;;;8.07;3.97;;;;;;;19.21;100.00;102060.63;7377020;19;20446;-55
2021/09/07 10:15:52;;;;;;;10.10;4.97;;;;;;;19.14;100.00;102062.19;7399423;19;20399;-59
2021/09/07 10:18:34;;;;;;;6.80;3.93;;;;;;;19.22;100.00;102056.31;7400698;19;20680;-56
2021/09/07 10:21:13;;;;;;;10.17;5.03;;;;;;;19.45;100.00;102054.28;7377989;19;20447;-57
2021/09/07 10:23:55;;;;;;;9.07;5.63;;;;;;;19.67;100.00;102052.19;7399319;19;20737;-56
2021/09/07 10:26:51;;;;;;;11.37;6.80;;;;;;;19.69;100.00;102053.13;7376237;19;20413;-56
2021/09/07 10:29:23;;;;;;;8.43;4.83;;;;;;;19.66;100.00;102053.03;7400112;19;20456;-54
2021/09/07 10:31:55;;;;;;;7.67;4.43;;;;;;;19.79;100.00;102049.88;7397047;19;20423;-56
2021/09/07 10:34:28;;;;;;;7.67;4.10;;;;;;;19.76;100.00;102048.91;7400584;19;20396;-53
2021/09/07 10:37:02;;;;;;;7.07;4.07;;;;;;;19.70;100.00;102044.44;7393621;19;20426;-54
2021/09/07 10:39:34;;;;;;;8.80;4.20;;;;;;;19.54;100.00;102040.53;7400952;19;20384;-52
2021/09/07 10:42:04;;;;;;;10.10;5.47;;;;;;;19.66;100.00;102035.63;7395130;19;20792;-54
2021/09/07 10:44:34;;;;;;;7.83;3.97;;;;;;;19.43;100.00;102040.25;7400379;19;20387;-58
2021/09/07 10:47:09;;;;;;;8.03;4.37;;;;;;;19.28;100.00;102035.53;7392336;19;20498;-54
2021/09/07 10:49:49;;;;;;;8.57;4.40;;;;;;;19.39;100.00;102041.03;7400302;19;20442;-58
2021/09/07 10:52:25;;;;;;;7.70;4.47;;;;;;;19.87;100.00;102041.31;7392764;19;20498;-60
2021/09/07 10:55:16;;;;;;;5.77;4.13;;;;;;;19.98;100.00;102037.25;7399832;19;20391;-61
2021/09/07 10:57:59;;;;;;;7.70;4.33;;;;;;;20.10;100.00;102028.78;7392857;19;20474;-58
2021/09/07 11:00:40;;;;;;;6.47;4.40;;;;;;;19.96;100.00;102033.72;7399795;19;20380;-55
2021/09/07 11:03:13;;;;;;;8.40;5.20;;;;;;;20.14;100.00;102034.97;7391528;19;20478;-57
2021/09/07 11:05:48;;;;;;;6.47;4.20;;;;;;;20.28;100.00;102030.91;7399504;19;20398;-52
2021/09/07 11:08:42;;;;;;;8.90;4.57;;;;;;;20.58;100.00;102031.53;7392298;19;20406;-57
2021/09/07 11:11:27;;;;;;;7.87;3.93;;;;;;;20.45;100.00;102027.78;7393535;19;20403;-55
2021/09/07 11:14:10;;;;;;;8.13;4.33;;;;;;;20.34;100.00;102022.28;7399752;19;20397;-51
2021/09/07 11:16:39;;;;;;;7.67;4.20;;;;;;;20.47;100.00;102019.06;7390578;19;20491;-58
2021/09/07 11:19:09;;;;;;;8.67;4.60;;;;;;;20.31;100.00;102019.63;7397674;19;20420;-59
2021/09/07 11:21:38;;;;;;;11.70;5.73;;;;;;;20.43;100.00;102021.59;7392404;19;20421;-52
2021/09/07 11:24:21;;;;;;;13.47;8.20;;;;;;;20.69;100.00;102021.25;7399460;19;20410;-55